createdAt,value
2022-08-10T00:01:52.482Z,23.94
2022-08-10T00:04:23.371Z,23.79
2022-08-10T00:06:54.913Z,23.87
2022-08-10T00:09:22.502Z,23.66
2022-08-10T00:11:49.124Z,23.85
2022-08-10T00:14:16.045Z,23.67
2022-08-10T00:16:42.576Z,23.60
2022-08-10T00:19:09.815Z,23.71
2022-08-10T00:21:36.723Z,23.59
2022-08-10T00:24:04.064Z,23.50
2022-08-10T00:27:51.854Z,22.84
2022-08-10T00:29:17.181Z,22.76
2022-08-10T00:31:58.673Z,23.00
2022-08-10T00:34:30.711Z,23.11
2022-08-10T00:36:58.071Z,23.03
2022-08-10T00:39:25.953Z,23.32
2022-08-10T00:42:01.688Z,23.06
2022-08-10T00:44:53.630Z,23.25
2022-08-10T00:47:36.479Z,23.04
2022-08-10T00:50:05.955Z,22.97
2022-08-10T00:52:33.551Z,22.89
2022-08-10T00:55:02.909Z,22.64
2022-08-10T00:57:29.633Z,22.72
2022-08-10T00:59:59.407Z,22.40
2022-08-10T01:02:32.156Z,22.94
2022-08-10T01:05:02.264Z,22.77
2022-08-10T01:07:49.230Z,22.88
2022-08-10T01:10:20.421Z,22.57
2022-08-10T01:13:02.237Z,22.92
2022-08-10T01:15:32.343Z,22.82
2022-08-10T01:18:05.097Z,23.03
2022-08-10T01:21:29.136Z,23.14
2022-08-10T01:24:14.339Z,23.26
2022-08-10T01:26:50.746Z,22.54
2022-08-10T01:29:42.503Z,22.98
2022-08-10T01:32:11.679Z,22.94
2022-08-10T01:35:18.704Z,22.46
2022-08-10T01:37:58.882Z,22.97
2022-08-10T01:40:27.967Z,23.06
2022-08-10T01:42:59.831Z,23.00
2022-08-10T01:45:44.489Z,22.61
2022-08-10T01:48:31.056Z,22.57
2022-08-10T01:51:05.084Z,22.29
2022-08-10T01:53:41.738Z,22.47
2022-08-10T01:56:11.371Z,22.50
2022-08-10T01:58:38.722Z,22.48
2022-08-10T02:01:08.024Z,22.36
2022-08-10T02:03:35.772Z,22.09
2022-08-10T02:06:25.202Z,21.78
2022-08-10T02:09:05.746Z,21.77
2022-08-10T02:11:55.806Z,22.05
2022-08-10T02:14:21.827Z,22.22
2022-08-10T02:16:51.582Z,21.83
2022-08-10T02:19:20.799Z,22.13
2022-08-10T02:22:37.115Z,22.11
2022-08-10T02:24:39.694Z,21.82
2022-08-10T02:27:06.625Z,21.57
2022-08-10T02:29:34.251Z,21.71
2022-08-10T02:32:01.468Z,21.75
2022-08-10T02:34:28.489Z,21.45
2022-08-10T02:36:57.333Z,21.63
2022-08-10T02:39:24.892Z,21.74
2022-08-10T02:45:08.286Z,21.93
2022-08-10T02:45:29.658Z,21.97
2022-08-10T02:48:09.180Z,22.10
2022-08-10T02:50:36.966Z,22.20
2022-08-10T02:53:56.331Z,22.09
2022-08-10T02:56:27.925Z,21.79
2022-08-10T02:59:04.337Z,21.59
2022-08-10T03:01:34.410Z,21.71
2022-08-10T03:04:05.538Z,21.70
2022-08-10T03:06:39.420Z,21.94
2022-08-10T03:09:07.594Z,21.85
2022-08-10T03:12:37.158Z,21.59
2022-08-10T03:14:22.971Z,21.74
2022-08-10T03:16:51.000Z,21.74
2022-08-10T03:20:34.625Z,21.74
2022-08-10T03:22:07.516Z,21.97
2022-08-10T03:24:34.532Z,21.76
2022-08-10T03:27:01.620Z,21.76
2022-08-10T03:29:28.759Z,21.78
2022-08-10T03:31:55.525Z,21.83
2022-08-10T03:34:32.826Z,21.58
2022-08-10T03:37:00.811Z,21.68
2022-08-10T03:39:27.657Z,21.70
2022-08-10T03:41:56.109Z,21.56
2022-08-10T03:44:28.997Z,21.64
2022-08-10T03:46:55.892Z,21.71
2022-08-10T03:49:23.380Z,21.66
2022-08-10T03:51:51.474Z,21.41
2022-08-10T03:54:18.817Z,21.22
2022-08-10T03:56:45.879Z,21.55
2022-08-10T03:59:14.624Z,21.67
2022-08-10T04:02:45.762Z,21.44
2022-08-10T04:04:29.787Z,21.48
2022-08-10T04:06:58.140Z,21.36
2022-08-10T04:09:55.074Z,21.13
2022-08-10T04:12:20.420Z,21.27
2022-08-10T04:14:50.965Z,21.15
2022-08-10T04:18:03.253Z,21.10
2022-08-10T04:20:34.713Z,21.06
2022-08-10T04:23:05.843Z,20.92
2022-08-10T04:25:32.929Z,21.03
2022-08-10T04:27:59.745Z,20.93
2022-08-10T04:30:28.038Z,20.87
2022-08-10T04:32:55.407Z,21.04
2022-08-10T04:35:23.984Z,20.62
2022-08-10T04:37:51.811Z,20.82
2022-08-10T04:40:29.741Z,20.55
2022-08-10T04:43:11.347Z,20.99
2022-08-10T04:45:49.651Z,20.88
2022-08-10T04:48:43.016Z,20.89
2022-08-10T04:51:06.416Z,21.02
2022-08-10T04:53:34.000Z,21.20
2022-08-10T04:56:20.614Z,21.36
2022-08-10T04:58:58.544Z,21.42
2022-08-10T05:01:25.184Z,21.46
2022-08-10T05:04:34.789Z,21.83
2022-08-10T05:06:38.263Z,22.02
2022-08-10T05:09:04.778Z,22.03
2022-08-10T05:11:31.335Z,22.12
2022-08-10T05:13:57.857Z,21.93
2022-08-10T05:16:32.307Z,22.20
2022-08-10T05:18:59.504Z,22.03
2022-08-10T05:22:03.660Z,22.04
2022-08-10T05:24:12.595Z,22.29
2022-08-10T05:26:54.906Z,22.16
2022-08-10T05:29:23.958Z,22.16
2022-08-10T05:31:50.678Z,22.28
2022-08-10T05:34:20.743Z,22.04
2022-08-10T05:36:47.972Z,21.87
2022-08-10T05:39:15.092Z,22.19
2022-08-10T05:41:46.059Z,22.20
2022-08-10T05:44:13.773Z,22.12
2022-08-10T05:46:40.933Z,21.95
2022-08-10T05:49:07.476Z,21.75
2022-08-10T05:51:34.041Z,22.15
2022-08-10T05:54:05.567Z,22.24
2022-08-10T05:56:55.378Z,22.12
2022-08-10T06:00:29.365Z,22.07
2022-08-10T06:02:31.851Z,21.90
2022-08-10T06:05:05.905Z,22.07
2022-08-10T06:07:33.408Z,21.72
2022-08-10T06:10:00.654Z,21.53
2022-08-10T06:12:36.417Z,21.88
2022-08-10T06:15:21.606Z,21.63
2022-08-10T06:18:04.976Z,21.92
2022-08-10T06:20:35.964Z,22.39
2022-08-10T06:23:04.622Z,22.53
2022-08-10T06:26:08.543Z,22.33
2022-08-10T06:28:19.528Z,22.40
2022-08-10T06:30:46.824Z,22.65
2022-08-10T06:33:13.934Z,22.47
2022-08-10T06:35:41.285Z,22.58
2022-08-10T06:38:08.642Z,22.05
2022-08-10T06:40:40.529Z,22.34
2022-08-10T06:43:09.960Z,22.13
2022-08-10T06:45:43.194Z,22.21
2022-08-10T06:48:16.549Z,22.45
2022-08-10T06:50:58.659Z,22.45
2022-08-10T06:53:51.992Z,22.68
2022-08-10T06:56:17.939Z,22.58
2022-08-10T06:58:53.121Z,22.61
2022-08-10T07:01:24.183Z,22.51
2022-08-10T07:04:05.615Z,22.60
2022-08-10T07:06:34.259Z,22.64
2022-08-10T07:09:01.967Z,22.83
2022-08-10T07:11:29.057Z,23.09
2022-08-10T07:14:16.647Z,23.28
2022-08-10T07:16:45.711Z,23.12
2022-08-10T07:19:12.933Z,23.56
2022-08-10T07:21:42.027Z,23.89
2022-08-10T07:24:14.096Z,23.79
2022-08-10T07:26:45.774Z,23.74
2022-08-10T07:29:53.887Z,23.86
2022-08-10T07:32:02.809Z,23.91
2022-08-10T07:34:30.316Z,24.34
2022-08-10T07:37:02.967Z,24.19
2022-08-10T07:40:01.783Z,24.53
2022-08-10T07:42:20.640Z,24.69
2022-08-10T07:44:48.311Z,24.52
2022-08-10T07:47:18.648Z,24.85
2022-08-10T07:50:08.053Z,25.34
2022-08-10T07:52:35.548Z,25.13
2022-08-10T07:55:03.793Z,25.29
2022-08-10T07:57:34.821Z,25.44
2022-08-10T08:00:08.400Z,25.79
2022-08-10T08:02:37.634Z,25.74
2022-08-10T08:05:09.863Z,25.49
2022-08-10T08:07:40.612Z,26.08
2022-08-10T08:10:09.567Z,25.93
2022-08-10T08:12:38.412Z,26.23
2022-08-10T08:16:14.268Z,26.02
2022-08-10T08:17:59.869Z,26.19
2022-08-10T08:20:27.545Z,26.75
2022-08-10T08:24:05.336Z,27.18
2022-08-10T08:25:43.407Z,27.56
2022-08-10T08:28:10.630Z,27.97
2022-08-10T08:30:38.673Z,27.15
2022-08-10T08:33:06.546Z,27.93
2022-08-10T08:35:33.436Z,28.02
2022-08-10T08:38:29.534Z,28.29
2022-08-10T08:40:54.855Z,28.84
2022-08-10T08:44:06.900Z,29.44
2022-08-10T08:46:59.311Z,29.57
2022-08-10T08:50:09.627Z,30.47
2022-08-10T08:54:02.244Z,30.73
2022-08-10T08:57:03.793Z,31.07
2022-08-10T08:59:55.060Z,32.30
2022-08-10T09:02:36.967Z,33.14
2022-08-10T09:05:06.445Z,33.31
2022-08-10T09:08:03.318Z,33.28
2022-08-10T09:10:54.402Z,33.44
2022-08-10T09:13:41.196Z,33.84
2022-08-10T09:16:37.848Z,34.47
2022-08-10T09:19:34.885Z,35.65
2022-08-10T09:22:18.314Z,35.35
2022-08-10T09:24:59.530Z,34.96
2022-08-10T09:27:50.542Z,34.99
2022-08-10T09:30:32.946Z,36.31
2022-08-10T09:36:20.692Z,44.36
2022-08-10T09:36:22.290Z,40.09
2022-08-10T09:39:03.758Z,47.59
2022-08-10T09:41:34.006Z,48.68
2022-08-10T09:44:08.995Z,50.31
2022-08-10T09:46:54.417Z,49.23
2022-08-10T09:50:04.358Z,49.21
2022-08-10T09:52:58.704Z,51.21
2022-08-10T09:56:17.694Z,52.37
2022-08-10T09:59:27.086Z,54.97
2022-08-10T10:02:02.868Z,56.18
2022-08-10T10:04:57.075Z,54.29
2022-08-10T10:07:26.801Z,55.24
2022-08-10T10:10:01.412Z,53.71
2022-08-10T10:12:46.356Z,52.68
2022-08-10T10:15:27.933Z,53.41
2022-08-10T10:18:21.891Z,57.10
2022-08-10T10:21:03.902Z,53.05
2022-08-10T10:24:23.253Z,53.08
2022-08-10T10:27:01.866Z,55.47
2022-08-10T10:29:57.091Z,55.75
2022-08-10T10:32:39.351Z,58.77
2022-08-10T10:35:37.084Z,60.07
2022-08-10T10:38:07.809Z,56.58
2022-08-10T10:40:40.174Z,57.77
2022-08-10T10:43:32.726Z,58.46
2022-08-10T10:46:07.949Z,58.83
2022-08-10T10:48:58.880Z,60.45
2022-08-10T10:51:54.930Z,60.16
2022-08-10T10:54:36.143Z,59.94
2022-08-10T10:57:21.622Z,58.09
2022-08-10T11:00:09.939Z,59.81
2022-08-10T11:03:13.642Z,59.03
2022-08-10T11:06:09.508Z,59.71
2022-08-10T11:08:44.617Z,55.67
2022-08-10T11:12:00.307Z,52.59
2022-08-10T11:14:35.995Z,51.61
2022-08-10T11:17:12.123Z,53.33
2022-08-10T11:20:12.297Z,56.35
2022-08-10T11:22:48.307Z,57.10
2022-08-10T11:25:33.996Z,56.56
2022-08-10T11:28:11.289Z,54.29
2022-08-10T11:30:59.368Z,52.62
2022-08-10T11:34:03.946Z,54.43
2022-08-10T11:36:25.407Z,51.35
2022-08-10T11:39:19.002Z,53.16
2022-08-10T11:42:07.868Z,53.75
2022-08-10T11:44:34.998Z,53.64
2022-08-10T11:47:06.656Z,53.67
2022-08-10T11:49:45.753Z,53.66
2022-08-10T11:52:20.800Z,53.70
2022-08-10T11:54:52.475Z,54.35
2022-08-10T11:57:19.652Z,56.64
2022-08-10T11:59:58.335Z,56.30
2022-08-10T12:02:36.476Z,54.81
2022-08-10T12:05:11.044Z,55.38
2022-08-10T12:10:07.865Z,56.15
2022-08-10T12:10:42.865Z,57.48
2022-08-10T12:13:19.784Z,55.35
2022-08-10T12:15:54.293Z,56.35
2022-08-10T12:18:25.319Z,54.46
2022-08-10T12:20:57.909Z,50.35
2022-08-10T12:23:39.340Z,44.49
2022-08-10T12:26:13.116Z,41.76
2022-08-10T12:29:11.982Z,39.27
2022-08-10T12:31:43.387Z,36.80
2022-08-10T12:34:20.170Z,36.57
2022-08-10T12:37:11.703Z,36.08
2022-08-10T12:39:53.269Z,34.84
2022-08-10T12:42:36.833Z,34.77
2022-08-10T12:45:14.802Z,34.29
2022-08-10T12:47:56.751Z,34.20
2022-08-10T12:50:47.233Z,33.38
2022-08-10T12:53:28.885Z,33.68
2022-08-10T12:59:48.005Z,33.27
2022-08-10T13:02:21.761Z,33.40
2022-08-10T13:04:51.313Z,32.66
2022-08-10T13:08:03.636Z,32.77
2022-08-10T13:10:15.586Z,33.08
2022-08-10T13:12:48.557Z,32.87
2022-08-10T13:15:44.989Z,33.43
2022-08-10T13:18:18.150Z,33.71
2022-08-10T13:20:51.442Z,33.78
2022-08-10T13:23:22.753Z,33.64
2022-08-10T13:25:50.593Z,33.77
2022-08-10T13:28:35.454Z,33.61
2022-08-10T13:31:06.120Z,33.65
2022-08-10T13:34:03.814Z,34.19
2022-08-10T13:36:29.219Z,33.99
2022-08-10T13:38:57.350Z,33.31
2022-08-10T13:41:28.899Z,33.50
2022-08-10T13:43:58.654Z,33.86
2022-08-10T13:46:27.738Z,34.16
2022-08-10T13:48:55.305Z,33.64
2022-08-10T13:51:56.954Z,34.20
2022-08-10T13:54:11.221Z,34.13
2022-08-10T13:56:40.882Z,34.62
2022-08-10T13:59:09.951Z,33.73
2022-08-10T14:01:37.912Z,34.43
2022-08-10T14:04:06.654Z,34.96
2022-08-10T14:06:33.620Z,34.35
2022-08-10T14:09:04.711Z,34.76
2022-08-10T14:11:32.095Z,34.90
2022-08-10T14:14:02.460Z,35.04
2022-08-10T14:16:29.605Z,34.40
2022-08-10T14:18:59.787Z,34.52
2022-08-10T14:21:27.486Z,34.67
2022-08-10T14:23:54.219Z,34.37
2022-08-10T14:26:28.886Z,33.91
2022-08-10T14:29:07.056Z,34.28
2022-08-10T14:31:36.416Z,33.94
2022-08-10T14:34:05.112Z,33.75
2022-08-10T14:36:45.416Z,34.33
2022-08-10T14:39:15.510Z,34.57
2022-08-10T14:42:02.463Z,34.71
2022-08-10T14:44:30.701Z,35.06
2022-08-10T14:46:59.266Z,34.59
2022-08-10T14:49:28.489Z,35.30
2022-08-10T14:52:01.685Z,33.72
2022-08-10T14:54:30.074Z,34.15
2022-08-10T14:57:11.526Z,34.00
2022-08-10T15:00:22.524Z,33.17
2022-08-10T15:02:40.392Z,33.69
2022-08-10T15:05:17.700Z,33.91
2022-08-10T15:07:59.453Z,33.42
2022-08-10T15:10:26.631Z,34.41
2022-08-10T15:12:55.336Z,34.06
2022-08-10T15:15:27.724Z,34.38
2022-08-10T15:17:57.735Z,33.76
2022-08-10T15:20:26.248Z,33.63
2022-08-10T15:23:05.643Z,33.64
2022-08-10T15:25:36.451Z,33.49
2022-08-10T15:28:10.355Z,33.54
2022-08-10T15:30:48.917Z,33.75
2022-08-10T15:33:57.531Z,33.98
2022-08-10T15:36:43.227Z,34.21
2022-08-10T15:39:17.242Z,33.58
2022-08-10T15:42:08.024Z,34.18
2022-08-10T15:44:39.526Z,33.45
2022-08-10T15:47:15.354Z,33.45
2022-08-10T15:49:49.615Z,33.04
2022-08-10T15:53:08.526Z,33.24
2022-08-10T15:55:53.282Z,33.39
2022-08-10T15:58:51.185Z,32.23
2022-08-10T16:02:14.285Z,32.68
2022-08-10T16:04:37.260Z,32.81
2022-08-10T16:07:18.332Z,32.85
2022-08-10T16:10:23.093Z,32.93
2022-08-10T16:12:59.710Z,33.10
2022-08-10T16:15:29.540Z,32.52
2022-08-10T16:18:16.618Z,32.65
2022-08-10T16:20:56.635Z,32.44
2022-08-10T16:23:26.300Z,32.21
2022-08-10T16:26:03.187Z,32.36
2022-08-10T16:28:34.925Z,32.53
2022-08-10T16:31:04.145Z,32.83
2022-08-10T16:33:53.176Z,32.46
2022-08-10T16:36:20.975Z,32.05
2022-08-10T16:38:48.773Z,32.08
2022-08-10T16:41:22.586Z,32.23
2022-08-10T16:44:04.348Z,32.33
2022-08-10T16:46:31.428Z,32.02
2022-08-10T16:48:59.105Z,32.05
2022-08-10T16:51:26.376Z,32.12
2022-08-10T16:53:53.817Z,32.38
2022-08-10T16:56:28.895Z,31.81
2022-08-10T16:58:56.801Z,31.88
2022-08-10T17:01:25.085Z,31.74
2022-08-10T17:04:06.906Z,31.52
2022-08-10T17:06:43.449Z,31.76
2022-08-10T17:09:17.338Z,31.71
2022-08-10T17:11:47.257Z,31.77
2022-08-10T17:14:14.042Z,31.47
2022-08-10T17:16:42.234Z,31.74
2022-08-10T17:19:12.978Z,31.40
2022-08-10T17:21:51.766Z,31.70
2022-08-10T17:24:20.281Z,31.43
2022-08-10T17:26:48.392Z,31.48
2022-08-10T17:29:57.941Z,31.66
2022-08-10T17:32:34.303Z,31.50
2022-08-10T17:35:13.739Z,31.43
2022-08-10T17:37:49.088Z,31.21
2022-08-10T17:40:18.534Z,31.35
2022-08-10T17:42:46.690Z,31.20
2022-08-10T17:45:46.315Z,31.16
2022-08-10T17:48:06.164Z,31.07
2022-08-10T17:50:33.546Z,31.03
2022-08-10T17:53:03.189Z,31.05
2022-08-10T17:55:37.718Z,31.02
2022-08-10T17:58:14.474Z,30.58
2022-08-10T18:00:43.583Z,30.45
2022-08-10T18:03:25.794Z,30.73
2022-08-10T18:05:55.846Z,30.60
2022-08-10T18:08:25.906Z,30.37
2022-08-10T18:10:57.254Z,30.57
2022-08-10T18:13:26.349Z,30.54
2022-08-10T18:15:53.310Z,30.31
2022-08-10T18:18:22.442Z,30.26
2022-08-10T18:20:52.307Z,30.47
2022-08-10T18:23:25.205Z,30.06
2022-08-10T18:25:58.122Z,30.40
2022-08-10T18:28:25.455Z,29.76
2022-08-10T18:30:53.947Z,29.59
2022-08-10T18:33:28.548Z,29.97
2022-08-10T18:35:57.041Z,30.01
2022-08-10T18:38:24.804Z,29.77
2022-08-10T18:40:54.226Z,30.25
2022-08-10T18:44:07.482Z,29.84
2022-08-10T18:46:15.970Z,30.11
2022-08-10T18:48:47.858Z,29.85
2022-08-10T18:51:15.060Z,29.98
2022-08-10T18:53:48.360Z,29.95
2022-08-10T18:56:21.208Z,29.82
2022-08-10T18:58:54.087Z,29.69
2022-08-10T19:01:43.171Z,29.74
2022-08-10T19:04:19.981Z,29.55
2022-08-10T19:06:56.230Z,29.61
2022-08-10T19:09:47.505Z,29.74
2022-08-10T19:12:30.007Z,29.55
2022-08-10T19:15:06.826Z,29.19
2022-08-10T19:18:03.959Z,29.20
2022-08-10T19:20:52.546Z,29.35
2022-08-10T19:23:41.064Z,29.31
2022-08-10T19:26:44.622Z,29.19
2022-08-10T19:29:11.047Z,28.83
2022-08-10T19:32:09.732Z,28.93
2022-08-10T19:35:03.842Z,29.06
2022-08-10T19:38:32.002Z,28.94
2022-08-10T19:41:10.585Z,28.69
2022-08-10T19:44:00.061Z,28.82
2022-08-10T19:46:34.929Z,28.77
2022-08-10T19:49:07.457Z,28.66
2022-08-10T19:51:52.418Z,28.27
2022-08-10T19:54:36.459Z,28.50
2022-08-10T19:57:31.879Z,28.58
2022-08-10T20:00:19.476Z,28.34
2022-08-10T20:02:51.639Z,28.29
2022-08-10T20:05:27.531Z,28.19
2022-08-10T20:07:59.580Z,28.00
2022-08-10T20:10:49.621Z,27.90
2022-08-10T20:13:29.939Z,28.01
2022-08-10T20:16:15.115Z,27.92
2022-08-10T20:18:44.516Z,27.88
2022-08-10T20:21:47.502Z,27.89
2022-08-10T20:24:31.560Z,27.80
2022-08-10T20:28:14.584Z,27.85
2022-08-10T20:30:03.592Z,27.79
2022-08-10T20:32:36.864Z,27.78
2022-08-10T20:35:09.313Z,27.51
2022-08-10T20:38:03.504Z,27.33
2022-08-10T20:40:31.310Z,27.42
2022-08-10T20:43:16.129Z,27.11
2022-08-10T20:46:06.910Z,27.23
2022-08-10T20:48:39.827Z,27.28
2022-08-10T20:51:10.261Z,27.40
2022-08-10T20:53:45.195Z,27.28
2022-08-10T20:56:27.579Z,27.18
2022-08-10T20:59:33.417Z,27.11
2022-08-10T21:02:24.257Z,27.20
2022-08-10T21:05:19.487Z,27.19
2022-08-10T21:08:04.563Z,27.24
2022-08-10T21:10:52.375Z,27.17
2022-08-10T21:13:48.144Z,27.28
2022-08-10T21:16:21.487Z,27.18
2022-08-10T21:19:23.107Z,27.06
2022-08-10T21:22:11.433Z,27.05
2022-08-10T21:24:46.056Z,26.99
2022-08-10T21:27:27.123Z,27.09
2022-08-10T21:30:08.996Z,26.96
2022-08-10T21:32:44.620Z,27.06
2022-08-10T21:35:20.313Z,27.06
2022-08-10T21:38:34.500Z,27.08
2022-08-10T21:41:57.551Z,27.05
2022-08-10T21:45:11.612Z,27.01
2022-08-10T21:48:18.900Z,26.96
2022-08-10T21:51:14.812Z,26.93
2022-08-10T21:54:22.119Z,26.79
2022-08-10T21:57:21.431Z,26.61
2022-08-10T22:00:13.957Z,26.56
2022-08-10T22:03:00.128Z,26.65
2022-08-10T22:05:48.310Z,26.65
2022-08-10T22:08:37.521Z,26.52
2022-08-10T22:11:31.331Z,26.56
2022-08-10T22:14:25.570Z,26.45
2022-08-10T22:18:01.185Z,26.36
2022-08-10T22:20:34.692Z,26.15
2022-08-10T22:23:27.373Z,26.39
2022-08-10T22:26:21.653Z,26.23
2022-08-10T22:29:12.550Z,26.11
2022-08-10T22:32:16.095Z,26.13
2022-08-10T22:35:21.890Z,26.14
2022-08-10T22:38:32.703Z,25.89
2022-08-10T22:41:22.178Z,25.88
2022-08-10T22:44:07.899Z,25.90
2022-08-10T22:46:53.422Z,25.80
2022-08-10T22:49:23.598Z,25.92
2022-08-10T22:51:54.713Z,25.91
2022-08-10T22:54:56.480Z,25.90
2022-08-10T22:57:49.327Z,25.68
2022-08-10T23:00:31.058Z,25.79
2022-08-10T23:03:07.606Z,25.69
2022-08-10T23:05:40.751Z,25.70
2022-08-10T23:08:45.726Z,25.69
2022-08-10T23:11:23.011Z,25.58
2022-08-10T23:14:04.516Z,25.57
2022-08-10T23:16:54.856Z,25.52
2022-08-10T23:19:30.037Z,25.34
2022-08-10T23:22:08.951Z,25.49
2022-08-10T23:24:53.614Z,25.22
2022-08-10T23:27:37.851Z,25.03
2022-08-10T23:30:17.838Z,25.36
2022-08-10T23:32:48.066Z,25.36
2022-08-10T23:36:30.663Z,25.08
2022-08-10T23:38:09.309Z,25.17
2022-08-10T23:40:36.823Z,25.05
2022-08-10T23:43:04.872Z,25.18
2022-08-10T23:45:53.021Z,25.02
2022-08-10T23:48:27.734Z,25.08
2022-08-10T23:50:58.512Z,25.04
2022-08-10T23:53:46.662Z,24.79
2022-08-10T23:56:16.797Z,24.81
2022-08-10T23:58:55.074Z,24.80
